Terminal Aerodrome Forecast
Issued by NWS

Home | Current Version | Previous Version | Text Only | Print | Product List | Glossary On
Versions: 1 2 3 4 5 6 7 8 9 10 11 12
000
FTUS46 KSTO 281731
TAFSAC
TAF
KSAC 281731Z 2818/2918 VRB04KT P6SM BKN250
     FM282300 21010G15KT P6SM SCT150
     FM291200 18008KT P6SM OVC100=

USA.gov is the U.S. government's official web portal to all federal, state and local government web resources and services.